<?xml version="1.0" encoding="UTF-8"?>
<gpx version="1.0" creator="Trackator" xmlns:xsi="http://www.w3.org/2001/XMLSchema-instance" xmlns="http://www.topografix.com/GPX/1/0" xmlns:topografix="http://www.topografix.com/GPX/Private/TopoGrafix/0/1" xsi:schemaLocation="http://www.topografix.com/GPX/1/0 http://www.topografix.com/GPX/1/0/gpx.xsd http://www.topografix.com/GPX/Private/TopoGrafix/0/1 http://www.topografix.com/GPX/Private/TopoGrafix/0/1/topografix.xsd">
<metadata>
<link href="http://www.trackalia.com/trackatorweb.php">
<text>Trackator</text>
</link>
</metadata>
<time>2019-02-02T14:21:21Z</time>
<trk>
<name>Track: </name>
<desc>4x4-SUV</desc>
<trkseg>
<trkpt lat="53.3477487" lon="18.4361545">
<ele>90</ele>
<time>2019-02-02T14:21:21Z</time>
</trkpt>
<trkpt lat="53.3477313" lon="18.4361662">
<ele>91</ele>
<time>2019-02-02T14:21:23Z</time>
</trkpt>
<trkpt lat="53.3477327" lon="18.4361211">
<ele>95</ele>
<time>2019-02-02T14:21:25Z</time>
</trkpt>
<trkpt lat="53.3477329" lon="18.4361090">
<ele>97</ele>
<time>2019-02-02T14:21:27Z</time>
</trkpt>
<trkpt lat="53.3477235" lon="18.4361149">
<ele>101</ele>
<time>2019-02-02T14:21:29Z</time>
</trkpt>
<trkpt lat="53.3477216" lon="18.4361228">
<ele>102</ele>
<time>2019-02-02T14:21:31Z</time>
</trkpt>
<trkpt lat="53.3477216" lon="18.4361228">
<ele>102</ele>
<time>2019-02-02T14:21:33Z</time>
</trkpt>
<trkpt lat="53.3477216" lon="18.4361228">
<ele>102</ele>
<time>2019-02-02T14:21:35Z</time>
</trkpt>
<trkpt lat="53.3477039" lon="18.4361445">
<ele>115</ele>
<time>2019-02-02T14:21:37Z</time>
</trkpt>
<trkpt lat="53.3476750" lon="18.4362026">
<ele>127</ele>
<time>2019-02-02T14:21:39Z</time>
</trkpt>
<trkpt lat="53.3476438" lon="18.4362864">
<ele>131</ele>
<time>2019-02-02T14:21:41Z</time>
</trkpt>
<trkpt lat="53.3476438" lon="18.4362864">
<ele>131</ele>
<time>2019-02-02T14:21:43Z</time>
</trkpt>
<trkpt lat="53.3476438" lon="18.4362864">
<ele>131</ele>
<time>2019-02-02T14:21:45Z</time>
</trkpt>
<trkpt lat="53.3476438" lon="18.4362864">
<ele>131</ele>
<time>2019-02-02T14:21:47Z</time>
</trkpt>
<trkpt lat="53.3476438" lon="18.4362864">
<ele>131</ele>
<time>2019-02-02T14:21:49Z</time>
</trkpt>
<trkpt lat="53.3476438" lon="18.4362864">
<ele>131</ele>
<time>2019-02-02T14:21:51Z</time>
</trkpt>
<trkpt lat="53.3476438" lon="18.4362864">
<ele>131</ele>
<time>2019-02-02T14:21:53Z</time>
</trkpt>
<trkpt lat="53.3476438" lon="18.4362864">
<ele>131</ele>
<time>2019-02-02T14:21:55Z</time>
</trkpt>
<trkpt lat="53.3476438" lon="18.4362864">
<ele>131</ele>
<time>2019-02-02T14:21:57Z</time>
</trkpt>
<trkpt lat="53.3476438" lon="18.4362864">
<ele>131</ele>
<time>2019-02-02T14:21:59Z</time>
</trkpt>
<trkpt lat="53.3476438" lon="18.4362864">
<ele>131</ele>
<time>2019-02-02T14:22:01Z</time>
</trkpt>
<trkpt lat="53.3476531" lon="18.4362778">
<ele>129</ele>
<time>2019-02-02T14:22:03Z</time>
</trkpt>
<trkpt lat="53.3476735" lon="18.4362373">
<ele>126</ele>
<time>2019-02-02T14:22:05Z</time>
</trkpt>
<trkpt lat="53.3476438" lon="18.4362864">
<ele>131</ele>
<time>2019-02-02T14:22:07Z</time>
</trkpt>
<trkpt lat="53.3476438" lon="18.4362864">
<ele>131</ele>
<time>2019-02-02T14:22:09Z</time>
</trkpt>
<trkpt lat="53.3476438" lon="18.4362864">
<ele>131</ele>
<time>2019-02-02T14:22:11Z</time>
</trkpt>
<trkpt lat="53.3476438" lon="18.4362864">
<ele>131</ele>
<time>2019-02-02T14:22:13Z</time>
</trkpt>
<trkpt lat="53.3476438" lon="18.4362864">
<ele>131</ele>
<time>2019-02-02T14:22:15Z</time>
</trkpt>
<trkpt lat="53.3476438" lon="18.4362864">
<ele>131</ele>
<time>2019-02-02T14:22:17Z</time>
</trkpt>
<trkpt lat="53.3476438" lon="18.4362864">
<ele>131</ele>
<time>2019-02-02T14:22:19Z</time>
</trkpt>
<trkpt lat="53.3476438" lon="18.4362864">
<ele>131</ele>
<time>2019-02-02T14:22:21Z</time>
</trkpt>
<trkpt lat="53.3476388" lon="18.4363124">
<ele>128</ele>
<time>2019-02-02T14:22:23Z</time>
</trkpt>
<trkpt lat="53.3476382" lon="18.4363288">
<ele>125</ele>
<time>2019-02-02T14:22:25Z</time>
</trkpt>
<trkpt lat="" lon="">
<ele></ele>
<time>2019-02-02TZ</time>
</trkpt>
</trkseg>
</trk>
<wpt lat="" lon="">
	<name></name>
	<desc></desc>
	<cmt></cmt>
	<photoid></photoid>
	<type></type>
</wpt>
</gpx>
